logo
Search for airport 
image banner adimage banner adimage banner ad
image banner ad

SCKB - Llollenorte

Located in Lago Caburga, Chile

ICAO - SCKB, IATA -

Data provided by Airmate  

General information

Coordinates: S39°3'39" W71°41'14"
Elevation is 1641 feet MSL.
Magnetic variation is 6° East
View others Airports in Araucanía

Operational data

Special qualification required
Current time UTC:
Current local time:
Weather at : - ( 0 km )
METAR: PAIG 161937Z AUTO 00000KT 1SM HZ FEW002 BKN021 12/07 A2992 RMK AO2
View NOTAMs / SUP AIP / TFR affecting this airport [VIEW]
Communications frequencies: [VIEW]

Runways:

RWY identifierQFULength (ft)Width (ft)SurfaceLDA (ft)
0782°166959DIRT
25262°166959DIRT

Airport contact information

Address: Lago Caburga Chile

Satellite view of SCKB